createdAt,value
2023-02-11T00:02:33.659Z,13.57
2023-02-11T00:05:37.638Z,10.65
2023-02-11T00:08:41.258Z,10.50
2023-02-11T00:11:44.420Z,10.05
2023-02-11T00:14:47.452Z,11.80
2023-02-11T00:17:50.459Z,8.70
2023-02-11T00:20:54.364Z,11.50
2023-02-11T00:24:00.345Z,17.30
2023-02-11T00:27:04.176Z,17.73
2023-02-11T00:30:07.745Z,16.40
2023-02-11T00:33:11.549Z,22.08
2023-02-11T00:36:24.400Z,21.52
2023-02-11T00:39:27.840Z,26.33
2023-02-11T00:42:32.286Z,18.00
2023-02-11T00:45:39.180Z,19.75
2023-02-11T00:48:42.335Z,23.60
2023-02-11T00:51:45.461Z,17.00
2023-02-11T00:54:49.985Z,14.35
2023-02-11T00:57:53.593Z,9.50
2023-02-11T01:00:56.813Z,26.60
2023-02-11T01:04:01.033Z,11.90
2023-02-11T01:07:04.205Z,16.98
2023-02-11T01:10:07.622Z,18.17
2023-02-11T01:13:11.370Z,35.08
2023-02-11T01:16:15.722Z,31.67
2023-02-11T01:19:21.411Z,35.72
2023-02-11T01:22:24.916Z,41.60
2023-02-11T01:25:28.002Z,38.85
2023-02-11T01:28:32.662Z,45.67
2023-02-11T01:31:39.313Z,47.72
2023-02-11T01:34:43.175Z,45.53
2023-02-11T01:37:49.181Z,71.05
2023-02-11T01:41:04.277Z,64.35
2023-02-11T01:44:28.633Z,78.20
2023-02-11T01:47:31.980Z,72.03
2023-02-11T01:50:36.678Z,49.75
2023-02-11T01:53:59.361Z,54.20
2023-02-11T01:57:23.112Z,32.97
2023-02-11T02:00:36.832Z,62.42
2023-02-11T02:03:47.470Z,53.35
2023-02-11T02:07:11.515Z,51.97
2023-02-11T02:10:20.053Z,39.88
2023-02-11T02:13:27.660Z,56.63
2023-02-11T02:16:34.769Z,30.27
2023-02-11T02:20:10.045Z,72.95
2023-02-11T02:23:30.111Z,51.90
2023-02-11T02:27:11.740Z,42.63
2023-02-11T02:30:45.502Z,37.95
2023-02-11T02:34:05.505Z,34.22
2023-02-11T02:37:20.709Z,43.17
2023-02-11T02:40:56.459Z,24.75
2023-02-11T02:44:00.047Z,25.90
2023-02-11T02:47:03.244Z,36.40
2023-02-11T02:50:09.092Z,29.88
2023-02-11T02:53:14.921Z,29.60
2023-02-11T02:56:54.382Z,30.05
2023-02-11T03:00:24.134Z,25.83
2023-02-11T03:03:44.084Z,23.08
2023-02-11T03:07:05.298Z,18.13
2023-02-11T03:10:18.385Z,31.52
2023-02-11T03:13:26.845Z,26.88
2023-02-11T03:16:36.879Z,28.90
2023-02-11T03:19:46.613Z,31.13
2023-02-11T03:23:05.135Z,29.23
2023-02-11T03:26:36.794Z,23.88
2023-02-11T03:29:52.414Z,29.73
2023-02-11T03:33:06.534Z,29.65
2023-02-11T03:36:16.447Z,25.80
2023-02-11T03:39:25.993Z,26.25
2023-02-11T03:42:36.543Z,25.52
2023-02-11T03:45:40.450Z,32.75
2023-02-11T03:48:52.396Z,29.75
2023-02-11T03:51:57.625Z,27.88
2023-02-11T03:55:04.529Z,27.65
2023-02-11T03:58:09.626Z,24.63
2023-02-11T04:01:13.713Z,24.13
2023-02-11T04:04:17.771Z,23.58
2023-02-11T04:07:22.101Z,22.70
2023-02-11T04:10:27.137Z,17.95
2023-02-11T04:13:30.636Z,22.35
2023-02-11T04:16:34.656Z,21.38
2023-02-11T04:19:38.332Z,24.50
2023-02-11T04:22:42.128Z,16.77
2023-02-11T04:25:46.003Z,15.63
2023-02-11T04:28:50.234Z,10.75
2023-02-11T04:31:53.707Z,16.42
2023-02-11T04:34:57.190Z,18.52
2023-02-11T04:38:00.902Z,18.40
2023-02-11T04:41:04.881Z,17.75
2023-02-11T04:44:08.912Z,20.55
2023-02-11T04:47:14.404Z,16.60
2023-02-11T04:50:18.431Z,15.85
2023-02-11T04:53:22.335Z,15.77
2023-02-11T04:56:26.001Z,21.42
2023-02-11T04:59:29.769Z,21.20
2023-02-11T05:02:33.552Z,21.98
2023-02-11T05:05:41.089Z,24.30
2023-02-11T05:08:44.269Z,20.70
2023-02-11T05:11:48.277Z,16.63
2023-02-11T05:14:51.828Z,16.10
2023-02-11T05:17:55.467Z,14.45
2023-02-11T05:20:58.772Z,15.73
2023-02-11T05:24:02.774Z,9.93
2023-02-11T05:27:06.737Z,7.40
2023-02-11T05:30:11.643Z,12.05
2023-02-11T05:33:14.933Z,9.90
2023-02-11T05:36:18.172Z,11.93
2023-02-11T05:39:21.479Z,11.73
2023-02-11T05:42:25.239Z,6.63
2023-02-11T05:45:31.628Z,11.05
2023-02-11T05:48:35.781Z,6.37
2023-02-11T05:51:39.324Z,7.55
2023-02-11T05:54:43.017Z,11.20
2023-02-11T05:57:46.642Z,8.75
2023-02-11T06:00:52.861Z,7.90
2023-02-11T06:03:56.563Z,6.53
2023-02-11T06:07:00.242Z,5.75
2023-02-11T06:10:03.736Z,3.75
2023-02-11T06:13:06.768Z,6.85
2023-02-11T06:16:10.902Z,5.03
2023-02-11T06:19:14.584Z,4.65
2023-02-11T06:22:17.913Z,6.28
2023-02-11T06:25:21.887Z,4.40
2023-02-11T06:28:25.635Z,5.95
2023-02-11T06:31:29.685Z,6.03
2023-02-11T06:34:33.495Z,5.43
2023-02-11T06:37:37.552Z,5.03
2023-02-11T06:40:41.881Z,6.32
2023-02-11T06:43:45.609Z,4.65
2023-02-11T06:46:49.584Z,5.25
2023-02-11T06:49:52.546Z,4.72
2023-02-11T06:52:56.108Z,5.05
2023-02-11T06:56:07.477Z,3.17
2023-02-11T06:59:17.401Z,4.25
2023-02-11T07:02:21.142Z,3.80
2023-02-11T07:05:24.350Z,3.95
2023-02-11T07:08:28.796Z,2.92
2023-02-11T07:11:32.367Z,4.82
2023-02-11T07:14:35.650Z,3.20
2023-02-11T07:17:39.332Z,3.65
2023-02-11T07:20:43.359Z,2.65
2023-02-11T07:23:46.899Z,1.85
2023-02-11T07:26:51.451Z,2.95
2023-02-11T07:29:54.782Z,2.90
2023-02-11T07:32:58.769Z,3.13
2023-02-11T07:36:02.364Z,3.53
2023-02-11T07:39:05.857Z,2.75
2023-02-11T07:42:08.910Z,2.78
2023-02-11T07:45:14.732Z,2.17
2023-02-11T07:48:18.393Z,2.50
2023-02-11T07:51:30.731Z,2.28
2023-02-11T07:54:33.761Z,2.70
2023-02-11T07:57:37.610Z,2.90
2023-02-11T08:00:41.272Z,4.13
2023-02-11T08:03:45.462Z,2.58
2023-02-11T08:06:48.608Z,2.42
2023-02-11T08:09:51.986Z,2.65
2023-02-11T08:12:55.715Z,2.35
2023-02-11T08:15:59.264Z,2.75
2023-02-11T08:19:05.226Z,2.20
2023-02-11T08:22:08.456Z,3.50
2023-02-11T08:25:11.483Z,3.05
2023-02-11T08:28:14.947Z,3.35
2023-02-11T08:31:21.915Z,2.67
2023-02-11T08:34:25.479Z,3.15
2023-02-11T08:37:30.793Z,2.70
2023-02-11T08:40:35.428Z,3.63
2023-02-11T08:43:43.232Z,4.15
2023-02-11T08:46:47.098Z,5.43
2023-02-11T08:49:50.863Z,4.13
2023-02-11T08:52:54.812Z,4.35
2023-02-11T08:55:58.744Z,2.80
2023-02-11T08:59:02.603Z,3.30
2023-02-11T09:02:06.866Z,4.28
2023-02-11T09:05:12.765Z,3.50
2023-02-11T09:08:17.468Z,3.10
2023-02-11T09:11:23.888Z,3.80
2023-02-11T09:14:31.015Z,3.70
2023-02-11T09:17:34.276Z,5.47
2023-02-11T09:20:38.186Z,4.32
2023-02-11T09:23:45.659Z,2.47
2023-02-11T09:26:50.047Z,3.28
2023-02-11T09:29:53.828Z,3.00
2023-02-11T09:32:56.784Z,3.28
2023-02-11T09:36:07.138Z,5.72
2023-02-11T09:39:15.471Z,5.80
2023-02-11T09:42:43.093Z,5.53
2023-02-11T09:45:46.566Z,6.40
2023-02-11T09:48:52.589Z,6.38
2023-02-11T09:52:34.860Z,8.15
2023-02-11T09:55:44.560Z,7.47
2023-02-11T09:58:48.550Z,5.88
2023-02-11T10:01:58.449Z,5.70
2023-02-11T10:05:20.326Z,6.45
2023-02-11T10:08:45.114Z,10.23
2023-02-11T10:11:48.995Z,8.68
2023-02-11T10:15:00.996Z,10.35
2023-02-11T10:18:07.472Z,9.13
2023-02-11T10:21:20.855Z,10.48
2023-02-11T10:24:24.603Z,9.38
2023-02-11T10:27:36.663Z,10.95
2023-02-11T10:30:58.647Z,10.60
2023-02-11T10:34:11.380Z,10.93
2023-02-11T10:37:17.702Z,11.07
2023-02-11T10:40:25.063Z,8.25
2023-02-11T10:43:30.618Z,15.60
2023-02-11T10:46:40.757Z,17.40
2023-02-11T10:49:46.685Z,13.20
2023-02-11T10:52:50.897Z,11.93
2023-02-11T10:55:56.701Z,10.82
2023-02-11T10:59:25.950Z,9.82
2023-02-11T11:02:35.225Z,8.65
2023-02-11T11:05:52.121Z,10.93
2023-02-11T11:08:56.011Z,7.50
2023-02-11T11:12:00.092Z,6.53
2023-02-11T11:15:12.472Z,8.30
2023-02-11T11:18:23.061Z,9.40
2023-02-11T11:21:34.292Z,9.10
2023-02-11T11:24:57.726Z,8.23
2023-02-11T11:28:03.174Z,7.97
2023-02-11T11:31:15.497Z,8.75
2023-02-11T11:34:29.527Z,9.73
2023-02-11T11:37:36.255Z,12.73
2023-02-11T11:40:40.324Z,14.27
2023-02-11T11:44:26.045Z,15.57
2023-02-11T11:47:37.895Z,18.25
2023-02-11T11:51:00.494Z,13.02
2023-02-11T11:54:09.629Z,11.40
2023-02-11T11:57:18.983Z,7.70
2023-02-11T12:00:29.317Z,11.50
2023-02-11T12:03:35.401Z,8.52
2023-02-11T12:06:41.950Z,12.30
2023-02-11T12:10:00.417Z,7.85
2023-02-11T12:13:15.640Z,10.05
2023-02-11T12:16:42.769Z,7.38
2023-02-11T12:19:56.934Z,9.55
2023-02-11T12:23:21.053Z,7.80
2023-02-11T12:26:47.316Z,7.57
2023-02-11T12:30:16.188Z,9.13
2023-02-11T12:33:31.836Z,7.60
2023-02-11T12:36:57.344Z,9.07
2023-02-11T12:40:18.639Z,11.10
2023-02-11T12:43:26.975Z,11.02
2023-02-11T12:46:36.863Z,8.40
2023-02-11T12:49:53.169Z,13.88
2023-02-11T12:53:03.991Z,8.52
2023-02-11T12:56:35.254Z,10.23
2023-02-11T13:00:13.162Z,10.20
2023-02-11T13:03:36.784Z,7.57
2023-02-11T13:07:10.041Z,8.68
2023-02-11T13:10:40.386Z,7.50
2023-02-11T13:14:05.345Z,5.18
2023-02-11T13:17:21.403Z,6.50
2023-02-11T13:20:50.618Z,5.88
2023-02-11T13:24:14.233Z,6.65
2023-02-11T13:27:51.353Z,6.68
2023-02-11T13:31:03.859Z,5.63
2023-02-11T13:34:48.015Z,6.28
2023-02-11T13:37:52.078Z,4.28
2023-02-11T13:41:17.460Z,4.93
2023-02-11T13:44:26.199Z,6.97
2023-02-11T13:47:36.137Z,9.93
2023-02-11T13:50:48.578Z,6.40
2023-02-11T13:53:58.853Z,7.95
2023-02-11T13:57:21.125Z,6.05
2023-02-11T14:00:38.627Z,3.40
2023-02-11T14:04:43.759Z,5.05
2023-02-11T14:11:35.350Z,3.03
2023-02-11T14:15:06.006Z,7.22
2023-02-11T14:18:39.896Z,3.00
2023-02-11T14:21:45.893Z,3.55
2023-02-11T14:25:02.067Z,1.50
2023-02-11T14:28:22.178Z,2.28
2023-02-11T14:31:37.605Z,3.13
2023-02-11T14:35:00.960Z,1.98
2023-02-11T14:38:23.128Z,3.35
2023-02-11T14:41:30.666Z,3.28
2023-02-11T14:44:35.953Z,3.13
2023-02-11T14:47:55.991Z,2.33
2023-02-11T14:51:07.062Z,2.33
2023-02-11T14:54:37.064Z,4.00
2023-02-11T14:57:40.541Z,3.28
2023-02-11T15:01:02.721Z,3.92
2023-02-11T15:04:17.153Z,2.92
2023-02-11T15:07:21.500Z,2.53
2023-02-11T15:10:57.690Z,2.03
2023-02-11T15:14:11.882Z,2.90
2023-02-11T15:17:20.302Z,5.32
2023-02-11T15:20:33.484Z,5.18
2023-02-11T15:23:41.885Z,3.80
2023-02-11T15:26:45.776Z,3.92
2023-02-11T15:29:51.237Z,6.20
2023-02-11T15:33:00.660Z,8.00
2023-02-11T15:36:04.547Z,5.70
2023-02-11T15:39:31.117Z,6.63
2023-02-11T15:42:50.733Z,4.78
2023-02-11T15:46:01.566Z,6.25
2023-02-11T15:49:09.402Z,7.85
2023-02-11T15:52:23.454Z,6.55
2023-02-11T15:55:28.207Z,8.43
2023-02-11T15:58:42.126Z,6.78
2023-02-11T16:01:48.218Z,8.70
2023-02-11T16:04:53.853Z,7.20
2023-02-11T16:08:00.509Z,9.90
2023-02-11T16:11:09.849Z,7.20
2023-02-11T16:14:28.472Z,7.70
2023-02-11T16:17:32.914Z,9.40
2023-02-11T16:20:36.981Z,11.23
2023-02-11T16:23:45.078Z,10.95
2023-02-11T16:26:54.494Z,5.03
2023-02-11T16:29:59.650Z,5.13
2023-02-11T16:33:03.680Z,9.90
2023-02-11T16:36:20.370Z,9.50
2023-02-11T16:42:27.966Z,7.75
2023-02-11T16:45:32.420Z,2.90
2023-02-11T16:48:36.237Z,4.07
2023-02-11T16:51:43.588Z,3.30
2023-02-11T16:54:47.139Z,4.22
2023-02-11T16:57:50.493Z,5.07
2023-02-11T17:00:54.320Z,5.05
2023-02-11T17:03:57.931Z,5.80
2023-02-11T17:07:01.479Z,5.68
2023-02-11T17:10:05.074Z,3.92
2023-02-11T17:13:09.641Z,4.82
2023-02-11T17:16:25.726Z,5.90
2023-02-11T17:19:29.884Z,6.68
2023-02-11T17:22:34.505Z,3.78
2023-02-11T17:25:38.320Z,3.38
2023-02-11T17:28:41.462Z,4.45
2023-02-11T17:31:46.113Z,4.47
2023-02-11T17:34:50.089Z,3.42
2023-02-11T17:37:54.529Z,4.70
2023-02-11T17:41:00.077Z,4.00
2023-02-11T17:44:04.109Z,3.78
2023-02-11T17:47:08.434Z,5.13
2023-02-11T17:50:13.427Z,5.75
2023-02-11T17:53:17.588Z,4.65
2023-02-11T17:56:22.344Z,4.68
2023-02-11T17:59:26.644Z,6.68
2023-02-11T18:02:30.370Z,4.43
2023-02-11T18:05:38.855Z,5.88
2023-02-11T18:08:43.701Z,4.47
2023-02-11T18:11:47.748Z,6.03
2023-02-11T18:14:56.846Z,7.25
2023-02-11T18:18:01.194Z,6.40
2023-02-11T18:21:09.547Z,5.13
2023-02-11T18:24:13.442Z,6.00
2023-02-11T18:27:17.531Z,4.13
2023-02-11T18:30:22.722Z,3.95
2023-02-11T18:33:27.507Z,6.57
2023-02-11T18:36:30.597Z,5.78
2023-02-11T18:39:34.028Z,5.10
2023-02-11T18:42:37.435Z,3.90
2023-02-11T18:45:49.159Z,4.82
2023-02-11T18:48:56.005Z,4.82
2023-02-11T18:52:00.205Z,6.07
2023-02-11T18:55:04.774Z,5.97
2023-02-11T18:58:08.216Z,5.45
2023-02-11T19:01:14.624Z,3.03
2023-02-11T19:04:20.514Z,4.55
2023-02-11T19:07:23.658Z,4.53
2023-02-11T19:10:28.239Z,2.47
2023-02-11T19:13:31.578Z,2.97
2023-02-11T19:16:35.598Z,3.80
2023-02-11T19:19:39.331Z,4.15
2023-02-11T19:22:43.526Z,4.18
2023-02-11T19:25:49.323Z,3.15
2023-02-11T19:28:54.226Z,5.00
2023-02-11T19:31:58.033Z,6.07
2023-02-11T19:35:01.478Z,3.65
2023-02-11T19:38:06.164Z,6.35
2023-02-11T19:41:13.100Z,5.93
2023-02-11T19:44:17.224Z,3.47
2023-02-11T19:47:20.984Z,6.55
2023-02-11T19:50:24.406Z,7.90
2023-02-11T19:53:27.689Z,3.33
2023-02-11T19:56:31.162Z,5.72
2023-02-11T19:59:34.551Z,5.63
2023-02-11T20:02:40.204Z,4.10
2023-02-11T20:05:47.576Z,5.45
2023-02-11T20:09:00.205Z,7.10
2023-02-11T20:12:03.948Z,7.05
2023-02-11T20:15:07.890Z,5.68
2023-02-11T20:18:11.601Z,7.10
2023-02-11T20:21:21.492Z,4.80
2023-02-11T20:24:26.057Z,5.50
2023-02-11T20:27:33.034Z,4.68
2023-02-11T20:30:36.742Z,5.63
2023-02-11T20:33:41.490Z,5.50
2023-02-11T20:36:52.413Z,5.75
2023-02-11T20:39:56.131Z,3.70
2023-02-11T20:42:59.764Z,4.53
2023-02-11T20:46:05.947Z,3.47
2023-02-11T20:49:12.753Z,4.65
2023-02-11T20:52:16.629Z,2.83
2023-02-11T20:55:20.321Z,4.65
2023-02-11T20:58:24.338Z,3.50
2023-02-11T21:01:32.364Z,3.15
2023-02-11T21:04:36.354Z,4.93
2023-02-11T21:07:39.947Z,2.55
2023-02-11T21:10:43.685Z,3.67
2023-02-11T21:13:47.448Z,2.83
2023-02-11T21:16:51.215Z,3.00
2023-02-11T21:19:55.455Z,5.13
2023-02-11T21:22:58.670Z,5.35
2023-02-11T21:26:02.089Z,5.03
2023-02-11T21:29:07.133Z,4.50
2023-02-11T21:32:11.272Z,5.45
2023-02-11T21:35:14.388Z,4.57
2023-02-11T21:38:17.664Z,2.00
2023-02-11T21:41:23.008Z,2.75
2023-02-11T21:44:28.613Z,3.63
2023-02-11T21:47:32.463Z,3.30
2023-02-11T21:50:43.245Z,4.78
2023-02-11T21:53:46.859Z,4.72
2023-02-11T21:56:52.606Z,4.40
2023-02-11T21:59:56.273Z,5.25
2023-02-11T22:02:59.576Z,4.95
2023-02-11T22:06:11.125Z,3.08
2023-02-11T22:09:14.546Z,6.50
2023-02-11T22:12:17.590Z,8.23
2023-02-11T22:15:20.788Z,7.40
2023-02-11T22:18:24.606Z,6.35
2023-02-11T22:21:28.002Z,7.03
2023-02-11T22:24:34.169Z,5.43
2023-02-11T22:27:37.867Z,8.13
2023-02-11T22:30:40.802Z,6.57
2023-02-11T22:33:44.995Z,5.03
2023-02-11T22:36:48.025Z,6.90
2023-02-11T22:39:51.166Z,5.55
2023-02-11T22:42:55.262Z,3.65
2023-02-11T22:46:05.604Z,5.95
2023-02-11T22:49:09.001Z,3.60
2023-02-11T22:52:11.989Z,5.57
2023-02-11T22:55:16.008Z,7.75
2023-02-11T22:58:19.366Z,7.45
2023-02-11T23:01:23.560Z,4.75
2023-02-11T23:04:27.647Z,6.10
2023-02-11T23:07:31.954Z,3.70
2023-02-11T23:10:37.486Z,5.05
2023-02-11T23:13:41.850Z,4.85
2023-02-11T23:16:45.100Z,6.55
2023-02-11T23:19:49.311Z,15.65
2023-02-11T23:22:53.122Z,15.45
2023-02-11T23:25:57.109Z,8.98
2023-02-11T23:29:00.557Z,6.80
2023-02-11T23:32:04.508Z,5.72
2023-02-11T23:35:08.561Z,11.18
2023-02-11T23:38:12.129Z,7.07
2023-02-11T23:41:16.379Z,4.32
2023-02-11T23:44:20.199Z,6.63
2023-02-11T23:47:23.942Z,5.22
2023-02-11T23:50:27.751Z,7.32
2023-02-11T23:53:31.988Z,7.78
2023-02-11T23:56:37.514Z,5.82
2023-02-11T23:59:43.108Z,6.55
